sensor_id;sensor_type;location;lat;lon;timestamp;temperature;humidity
21439;DHT22;10880;50.302;18.736;2023-05-27T00:00:12;17.00;50.80
21439;DHT22;10880;50.302;18.736;2023-05-27T00:02:40;17.00;51.10
21439;DHT22;10880;50.302;18.736;2023-05-27T00:05:07;16.90;50.60
21439;DHT22;10880;50.302;18.736;2023-05-27T00:07:34;16.90;50.90
21439;DHT22;10880;50.302;18.736;2023-05-27T00:10:01;16.90;50.80
21439;DHT22;10880;50.302;18.736;2023-05-27T00:12:28;16.80;50.80
21439;DHT22;10880;50.302;18.736;2023-05-27T00:14:56;15.80;50.80
21439;DHT22;10880;50.302;18.736;2023-05-27T00:17:23;16.80;51.10
21439;DHT22;10880;50.302;18.736;2023-05-27T00:19:52;16.70;50.80
21439;DHT22;10880;50.302;18.736;2023-05-27T00:22:20;16.70;51.10
21439;DHT22;10880;50.302;18.736;2023-05-27T00:24:46;16.70;51.10
21439;DHT22;10880;50.302;18.736;2023-05-27T00:27:14;16.60;50.80
21439;DHT22;10880;50.302;18.736;2023-05-27T00:29:42;16.60;50.80
21439;DHT22;10880;50.302;18.736;2023-05-27T00:32:11;16.60;51.00
21439;DHT22;10880;50.302;18.736;2023-05-27T00:34:38;16.60;51.20
21439;DHT22;10880;50.302;18.736;2023-05-27T00:37:05;16.50;51.20
21439;DHT22;10880;50.302;18.736;2023-05-27T00:39:33;16.50;51.50
21439;DHT22;10880;50.302;18.736;2023-05-27T00:42:00;16.50;51.30
21439;DHT22;10880;50.302;18.736;2023-05-27T00:44:28;16.10;51.00
21439;DHT22;10880;50.302;18.736;2023-05-27T00:46:55;16.40;51.20
21439;DHT22;10880;50.302;18.736;2023-05-27T00:49:22;16.40;51.20
21439;DHT22;10880;50.302;18.736;2023-05-27T00:51:53;16.30;51.20
21439;DHT22;10880;50.302;18.736;2023-05-27T00:54:20;16.30;51.40
21439;DHT22;10880;50.302;18.736;2023-05-27T00:56:47;16.20;51.20
21439;DHT22;10880;50.302;18.736;2023-05-27T00:59:14;16.20;51.30
21439;DHT22;10880;50.302;18.736;2023-05-27T01:01:41;16.20;51.60
21439;DHT22;10880;50.302;18.736;2023-05-27T01:04:11;16.20;51.70
21439;DHT22;10880;50.302;18.736;2023-05-27T01:07:03;16.10;51.60
21439;DHT22;10880;50.302;18.736;2023-05-27T01:09:45;16.10;51.90
21439;DHT22;10880;50.302;18.736;2023-05-27T01:12:35;16.10;51.40
21439;DHT22;10880;50.302;18.736;2023-05-27T01:15:05;16.10;51.90
21439;DHT22;10880;50.302;18.736;2023-05-27T01:17:33;16.00;51.80
21439;DHT22;10880;50.302;18.736;2023-05-27T01:20:12;16.00;51.80
21439;DHT22;10880;50.302;18.736;2023-05-27T01:22:42;16.00;51.40
21439;DHT22;10880;50.302;18.736;2023-05-27T01:25:10;16.00;51.50
21439;DHT22;10880;50.302;18.736;2023-05-27T01:27:37;16.00;51.80
21439;DHT22;10880;50.302;18.736;2023-05-27T01:30:08;15.90;51.70
21439;DHT22;10880;50.302;18.736;2023-05-27T01:32:59;15.90;51.90
21439;DHT22;10880;50.302;18.736;2023-05-27T01:35:51;15.90;52.00
21439;DHT22;10880;50.302;18.736;2023-05-27T01:38:21;16.00;51.60
21439;DHT22;10880;50.302;18.736;2023-05-27T01:40:50;15.90;51.60
21439;DHT22;10880;50.302;18.736;2023-05-27T01:43:18;15.90;51.90
21439;DHT22;10880;50.302;18.736;2023-05-27T01:45:45;15.90;51.60
21439;DHT22;10880;50.302;18.736;2023-05-27T01:48:11;15.80;51.80
21439;DHT22;10880;50.302;18.736;2023-05-27T01:50:38;15.80;51.70
21439;DHT22;10880;50.302;18.736;2023-05-27T01:53:06;15.80;51.50
21439;DHT22;10880;50.302;18.736;2023-05-27T01:55:32;15.80;51.70
21439;DHT22;10880;50.302;18.736;2023-05-27T01:57:59;15.80;51.60
21439;DHT22;10880;50.302;18.736;2023-05-27T02:00:26;15.70;51.80
21439;DHT22;10880;50.302;18.736;2023-05-27T02:02:52;15.70;51.70
21439;DHT22;10880;50.302;18.736;2023-05-27T02:05:21;15.70;51.70
21439;DHT22;10880;50.302;18.736;2023-05-27T02:07:48;15.70;51.70
21439;DHT22;10880;50.302;18.736;2023-05-27T02:10:15;15.70;51.70
21439;DHT22;10880;50.302;18.736;2023-05-27T02:12:43;15.70;51.90
21439;DHT22;10880;50.302;18.736;2023-05-27T02:15:09;15.70;51.80
21439;DHT22;10880;50.302;18.736;2023-05-27T02:17:36;15.70;51.90
21439;DHT22;10880;50.302;18.736;2023-05-27T02:20:05;15.70;52.10
21439;DHT22;10880;50.302;18.736;2023-05-27T02:25:02;15.60;51.60
21439;DHT22;10880;50.302;18.736;2023-05-27T02:27:28;15.60;51.60
21439;DHT22;10880;50.302;18.736;2023-05-27T02:29:55;15.60;51.70
21439;DHT22;10880;50.302;18.736;2023-05-27T02:32:22;15.60;51.90
21439;DHT22;10880;50.302;18.736;2023-05-27T02:34:49;15.60;52.10
21439;DHT22;10880;50.302;18.736;2023-05-27T02:37:16;15.60;52.10
21439;DHT22;10880;50.302;18.736;2023-05-27T02:39:43;15.70;51.90
21439;DHT22;10880;50.302;18.736;2023-05-27T02:42:09;15.60;51.90
21439;DHT22;10880;50.302;18.736;2023-05-27T02:44:36;15.70;51.90
21439;DHT22;10880;50.302;18.736;2023-05-27T02:47:03;15.70;52.10
21439;DHT22;10880;50.302;18.736;2023-05-27T02:49:29;15.70;52.00
21439;DHT22;10880;50.302;18.736;2023-05-27T02:51:56;15.70;52.00
21439;DHT22;10880;50.302;18.736;2023-05-27T02:54:22;15.70;52.00
21439;DHT22;10880;50.302;18.736;2023-05-27T02:56:49;15.70;51.90
21439;DHT22;10880;50.302;18.736;2023-05-27T02:59:16;15.70;52.10
21439;DHT22;10880;50.302;18.736;2023-05-27T03:01:43;15.70;51.70
21439;DHT22;10880;50.302;18.736;2023-05-27T03:04:10;15.70;51.90
21439;DHT22;10880;50.302;18.736;2023-05-27T03:06:37;15.70;51.90
21439;DHT22;10880;50.302;18.736;2023-05-27T03:09:04;15.70;51.90
21439;DHT22;10880;50.302;18.736;2023-05-27T03:11:31;15.70;51.90
21439;DHT22;10880;50.302;18.736;2023-05-27T03:13:59;15.70;51.90
21439;DHT22;10880;50.302;18.736;2023-05-27T03:16:26;15.70;51.70
21439;DHT22;10880;50.302;18.736;2023-05-27T03:18:52;15.70;51.80
21439;DHT22;10880;50.302;18.736;2023-05-27T03:21:19;15.70;51.80
21439;DHT22;10880;50.302;18.736;2023-05-27T03:23:46;15.70;51.90
21439;DHT22;10880;50.302;18.736;2023-05-27T03:26:13;15.70;51.70
21439;DHT22;10880;50.302;18.736;2023-05-27T03:28:40;15.70;51.90
21439;DHT22;10880;50.302;18.736;2023-05-27T03:31:07;15.60;51.80
21439;DHT22;10880;50.302;18.736;2023-05-27T03:33:45;15.70;51.80
21439;DHT22;10880;50.302;18.736;2023-05-27T03:36:12;15.60;51.90
21439;DHT22;10880;50.302;18.736;2023-05-27T03:38:38;15.60;51.90
21439;DHT22;10880;50.302;18.736;2023-05-27T03:41:06;15.60;52.20
21439;DHT22;10880;50.302;18.736;2023-05-27T03:43:32;15.70;52.20
21439;DHT22;10880;50.302;18.736;2023-05-27T03:45:59;15.70;52.00
21439;DHT22;10880;50.302;18.736;2023-05-27T03:48:26;15.70;52.10
21439;DHT22;10880;50.302;18.736;2023-05-27T03:50:52;15.70;52.30
21439;DHT22;10880;50.302;18.736;2023-05-27T03:53:19;15.70;52.20
21439;DHT22;10880;50.302;18.736;2023-05-27T03:55:45;15.70;52.20
21439;DHT22;10880;50.302;18.736;2023-05-27T03:58:13;15.70;52.40
21439;DHT22;10880;50.302;18.736;2023-05-27T04:00:41;15.80;52.70
21439;DHT22;10880;50.302;18.736;2023-05-27T04:03:08;15.80;52.50
21439;DHT22;10880;50.302;18.736;2023-05-27T04:05:35;15.80;52.60
21439;DHT22;10880;50.302;18.736;2023-05-27T04:08:03;15.90;52.50
21439;DHT22;10880;50.302;18.736;2023-05-27T04:10:30;15.90;52.70
21439;DHT22;10880;50.302;18.736;2023-05-27T04:15:24;15.90;52.30
21439;DHT22;10880;50.302;18.736;2023-05-27T04:20:19;16.00;52.30
21439;DHT22;10880;50.302;18.736;2023-05-27T04:22:51;16.00;52.50
21439;DHT22;10880;50.302;18.736;2023-05-27T04:25:18;16.10;52.50
21439;DHT22;10880;50.302;18.736;2023-05-27T04:28:00;16.10;52.40
21439;DHT22;10880;50.302;18.736;2023-05-27T04:30:31;16.10;52.70
21439;DHT22;10880;50.302;18.736;2023-05-27T04:33:00;16.20;52.70
21439;DHT22;10880;50.302;18.736;2023-05-27T04:35:27;16.20;52.70
21439;DHT22;10880;50.302;18.736;2023-05-27T04:37:54;16.20;52.50
21439;DHT22;10880;50.302;18.736;2023-05-27T04:40:22;16.30;52.50
21439;DHT22;10880;50.302;18.736;2023-05-27T04:43:10;16.30;52.70
21439;DHT22;10880;50.302;18.736;2023-05-27T04:45:39;16.40;52.40
21439;DHT22;10880;50.302;18.736;2023-05-27T04:48:06;16.30;52.30
21439;DHT22;10880;50.302;18.736;2023-05-27T04:50:32;16.40;52.40
21439;DHT22;10880;50.302;18.736;2023-05-27T04:53:01;16.40;52.80
21439;DHT22;10880;50.302;18.736;2023-05-27T04:55:29;16.40;52.70
21439;DHT22;10880;50.302;18.736;2023-05-27T04:57:57;16.50;52.70
21439;DHT22;10880;50.302;18.736;2023-05-27T05:00:23;16.50;52.60
21439;DHT22;10880;50.302;18.736;2023-05-27T05:03:08;16.60;52.80
21439;DHT22;10880;50.302;18.736;2023-05-27T05:05:38;16.60;52.80
21439;DHT22;10880;50.302;18.736;2023-05-27T05:08:06;16.70;53.00
21439;DHT22;10880;50.302;18.736;2023-05-27T05:10:32;16.70;52.60
21439;DHT22;10880;50.302;18.736;2023-05-27T05:13:02;16.80;52.60
21439;DHT22;10880;50.302;18.736;2023-05-27T05:17:57;16.90;52.50
21439;DHT22;10880;50.302;18.736;2023-05-27T05:20:24;16.90;52.80
21439;DHT22;10880;50.302;18.736;2023-05-27T05:22:51;17.10;52.70
21439;DHT22;10880;50.302;18.736;2023-05-27T05:25:18;17.10;52.80
21439;DHT22;10880;50.302;18.736;2023-05-27T05:27:51;17.10;52.80
21439;DHT22;10880;50.302;18.736;2023-05-27T05:32:45;17.40;52.60
21439;DHT22;10880;50.302;18.736;2023-05-27T05:35:12;17.50;52.60
21439;DHT22;10880;50.302;18.736;2023-05-27T05:37:48;17.50;52.80
21439;DHT22;10880;50.302;18.736;2023-05-27T05:40:16;17.60;53.20
21439;DHT22;10880;50.302;18.736;2023-05-27T05:42:54;17.70;53.10
21439;DHT22;10880;50.302;18.736;2023-05-27T05:45:24;17.80;53.20
21439;DHT22;10880;50.302;18.736;2023-05-27T05:47:53;17.90;53.20
21439;DHT22;10880;50.302;18.736;2023-05-27T05:50:23;18.00;52.90
21439;DHT22;10880;50.302;18.736;2023-05-27T05:52:51;18.10;53.10
21439;DHT22;10880;50.302;18.736;2023-05-27T05:55:18;18.30;53.50
21439;DHT22;10880;50.302;18.736;2023-05-27T05:57:46;18.50;53.20
21439;DHT22;10880;50.302;18.736;2023-05-27T06:00:14;18.60;53.50
21439;DHT22;10880;50.302;18.736;2023-05-27T06:02:46;18.70;53.60
21439;DHT22;10880;50.302;18.736;2023-05-27T06:05:33;18.90;53.40
21439;DHT22;10880;50.302;18.736;2023-05-27T06:07:59;19.40;53.50
21439;DHT22;10880;50.302;18.736;2023-05-27T06:10:27;19.40;53.70
21439;DHT22;10880;50.302;18.736;2023-05-27T06:12:56;19.60;54.50
21439;DHT22;10880;50.302;18.736;2023-05-27T06:15:23;19.90;54.70
21439;DHT22;10880;50.302;18.736;2023-05-27T06:17:52;20.20;54.40
21439;DHT22;10880;50.302;18.736;2023-05-27T06:20:19;20.50;54.50
21439;DHT22;10880;50.302;18.736;2023-05-27T06:22:46;21.10;53.00
21439;DHT22;10880;50.302;18.736;2023-05-27T06:25:34;21.50;52.50
21439;DHT22;10880;50.302;18.736;2023-05-27T06:28:05;21.60;52.00
21439;DHT22;10880;50.302;18.736;2023-05-27T06:30:32;21.70;52.30
21439;DHT22;10880;50.302;18.736;2023-05-27T06:33:00;22.10;51.80
21439;DHT22;10880;50.302;18.736;2023-05-27T06:35:29;22.20;51.30
21439;DHT22;10880;50.302;18.736;2023-05-27T06:37:58;22.40;50.80
21439;DHT22;10880;50.302;18.736;2023-05-27T06:40:26;22.50;50.20
21439;DHT22;10880;50.302;18.736;2023-05-27T06:42:54;22.60;49.60
21439;DHT22;10880;50.302;18.736;2023-05-27T06:45:40;22.70;49.70
21439;DHT22;10880;50.302;18.736;2023-05-27T06:48:25;22.70;48.60
21439;DHT22;10880;50.302;18.736;2023-05-27T06:50:52;22.70;48.00
21439;DHT22;10880;50.302;18.736;2023-05-27T06:53:20;22.70;47.80
21439;DHT22;10880;50.302;18.736;2023-05-27T06:55:55;23.60;48.60
21439;DHT22;10880;50.302;18.736;2023-05-27T06:58:45;22.70;47.80
21439;DHT22;10880;50.302;18.736;2023-05-27T07:01:15;22.60;47.70
21439;DHT22;10880;50.302;18.736;2023-05-27T07:03:47;22.60;47.50
21439;DHT22;10880;50.302;18.736;2023-05-27T07:06:17;22.50;47.40
21439;DHT22;10880;50.302;18.736;2023-05-27T07:11:21;22.40;47.40
21439;DHT22;10880;50.302;18.736;2023-05-27T07:13:53;22.30;47.80
21439;DHT22;10880;50.302;18.736;2023-05-27T07:18:51;22.20;47.70
21439;DHT22;10880;50.302;18.736;2023-05-27T07:21:18;22.20;48.10
21439;DHT22;10880;50.302;18.736;2023-05-27T07:23:45;22.10;48.20
21439;DHT22;10880;50.302;18.736;2023-05-27T07:26:40;22.10;48.30
21439;DHT22;10880;50.302;18.736;2023-05-27T07:29:08;22.10;48.00
21439;DHT22;10880;50.302;18.736;2023-05-27T07:32:09;22.10;47.90
21439;DHT22;10880;50.302;18.736;2023-05-27T07:34:36;22.00;48.00
21439;DHT22;10880;50.302;18.736;2023-05-27T07:37:04;22.00;48.30
21439;DHT22;10880;50.302;18.736;2023-05-27T07:41:58;22.00;48.00
21439;DHT22;10880;50.302;18.736;2023-05-27T07:46:55;22.00;48.10
21439;DHT22;10880;50.302;18.736;2023-05-27T07:49:26;22.00;47.90
21439;DHT22;10880;50.302;18.736;2023-05-27T07:52:05;22.00;48.50
21439;DHT22;10880;50.302;18.736;2023-05-27T07:54:32;19.50;47.00
21439;DHT22;10880;50.302;18.736;2023-05-27T07:56:59;22.00;48.20
21439;DHT22;10880;50.302;18.736;2023-05-27T07:59:26;22.00;48.20
21439;DHT22;10880;50.302;18.736;2023-05-27T08:01:53;22.00;48.30
21439;DHT22;10880;50.302;18.736;2023-05-27T08:04:20;22.00;48.30
21439;DHT22;10880;50.302;18.736;2023-05-27T08:07:01;22.10;47.70
21439;DHT22;10880;50.302;18.736;2023-05-27T08:09:34;22.10;48.10
21439;DHT22;10880;50.302;18.736;2023-05-27T08:12:17;22.10;48.00
21439;DHT22;10880;50.302;18.736;2023-05-27T08:15:05;22.10;48.10
21439;DHT22;10880;50.302;18.736;2023-05-27T08:17:41;22.10;48.20
21439;DHT22;10880;50.302;18.736;2023-05-27T08:20:36;22.20;48.00
21439;DHT22;10880;50.302;18.736;2023-05-27T08:23:31;22.20;48.00
21439;DHT22;10880;50.302;18.736;2023-05-27T08:26:25;22.20;47.90
21439;DHT22;10880;50.302;18.736;2023-05-27T08:28:57;22.20;47.80
21439;DHT22;10880;50.302;18.736;2023-05-27T08:31:49;22.20;47.80
21439;DHT22;10880;50.302;18.736;2023-05-27T08:34:22;22.30;47.30
21439;DHT22;10880;50.302;18.736;2023-05-27T08:36:51;22.30;47.70
21439;DHT22;10880;50.302;18.736;2023-05-27T08:39:25;22.30;47.70
21439;DHT22;10880;50.302;18.736;2023-05-27T08:42:06;22.30;47.00
21439;DHT22;10880;50.302;18.736;2023-05-27T08:44:37;22.30;46.90
21439;DHT22;10880;50.302;18.736;2023-05-27T08:47:11;22.40;47.10
21439;DHT22;10880;50.302;18.736;2023-05-27T08:49:42;22.40;47.60
21439;DHT22;10880;50.302;18.736;2023-05-27T08:52:13;22.40;47.50
21439;DHT22;10880;50.302;18.736;2023-05-27T08:54:51;22.50;47.50
21439;DHT22;10880;50.302;18.736;2023-05-27T08:57:27;22.50;47.40
21439;DHT22;10880;50.302;18.736;2023-05-27T08:59:56;22.50;46.80
21439;DHT22;10880;50.302;18.736;2023-05-27T09:02:26;22.60;46.60
21439;DHT22;10880;50.302;18.736;2023-05-27T09:05:05;22.60;47.30
21439;DHT22;10880;50.302;18.736;2023-05-27T09:07:43;22.60;47.20
21439;DHT22;10880;50.302;18.736;2023-05-27T09:10:13;22.70;47.30
21439;DHT22;10880;50.302;18.736;2023-05-27T09:12:43;22.70;47.20
21439;DHT22;10880;50.302;18.736;2023-05-27T09:15:14;22.80;46.60
21439;DHT22;10880;50.302;18.736;2023-05-27T09:17:44;22.80;46.50
21439;DHT22;10880;50.302;18.736;2023-05-27T09:22:41;22.80;46.30
21439;DHT22;10880;50.302;18.736;2023-05-27T09:25:10;23.00;46.20
21439;DHT22;10880;50.302;18.736;2023-05-27T09:27:42;23.00;46.20
21439;DHT22;10880;50.302;18.736;2023-05-27T09:30:09;23.00;46.80
21439;DHT22;10880;50.302;18.736;2023-05-27T09:32:46;23.00;46.50
21439;DHT22;10880;50.302;18.736;2023-05-27T09:35:17;23.10;45.60
21439;DHT22;10880;50.302;18.736;2023-05-27T09:37:45;23.10;46.50
21439;DHT22;10880;50.302;18.736;2023-05-27T09:40:14;23.10;46.20
21439;DHT22;10880;50.302;18.736;2023-05-27T09:42:49;23.10;46.10
21439;DHT22;10880;50.302;18.736;2023-05-27T09:45:21;23.10;46.00
21439;DHT22;10880;50.302;18.736;2023-05-27T09:47:50;23.20;46.00
21439;DHT22;10880;50.302;18.736;2023-05-27T09:50:18;23.20;45.40
21439;DHT22;10880;50.302;18.736;2023-05-27T09:52:47;23.20;45.10
21439;DHT22;10880;50.302;18.736;2023-05-27T09:55:15;23.20;45.80
21439;DHT22;10880;50.302;18.736;2023-05-27T09:57:43;23.30;45.70
21439;DHT22;10880;50.302;18.736;2023-05-27T10:00:12;23.20;45.70
21439;DHT22;10880;50.302;18.736;2023-05-27T10:02:44;23.30;45.50
21439;DHT22;10880;50.302;18.736;2023-05-27T10:05:14;23.30;45.60
21439;DHT22;10880;50.302;18.736;2023-05-27T10:07:44;23.40;45.50
21439;DHT22;10880;50.302;18.736;2023-05-27T10:10:16;23.40;45.20
21439;DHT22;10880;50.302;18.736;2023-05-27T10:12:45;23.40;45.10
21439;DHT22;10880;50.302;18.736;2023-05-27T10:15:27;23.40;45.00
21439;DHT22;10880;50.302;18.736;2023-05-27T10:18:04;23.40;44.80
21439;DHT22;10880;50.302;18.736;2023-05-27T10:20:52;23.40;45.00
21439;DHT22;10880;50.302;18.736;2023-05-27T10:23:29;23.40;44.70
21439;DHT22;10880;50.302;18.736;2023-05-27T10:26:08;23.50;45.00
21439;DHT22;10880;50.302;18.736;2023-05-27T10:28:37;23.50;44.40
21439;DHT22;10880;50.302;18.736;2023-05-27T10:31:28;23.50;44.10
21439;DHT22;10880;50.302;18.736;2023-05-27T10:33:57;23.50;44.70
21439;DHT22;10880;50.302;18.736;2023-05-27T10:36:27;23.50;44.40
21439;DHT22;10880;50.302;18.736;2023-05-27T10:39:18;23.60;44.00
21439;DHT22;10880;50.302;18.736;2023-05-27T10:44:41;23.60;44.00
21439;DHT22;10880;50.302;18.736;2023-05-27T10:47:12;23.70;44.00
21439;DHT22;10880;50.302;18.736;2023-05-27T10:49:46;23.70;44.30
21439;DHT22;10880;50.302;18.736;2023-05-27T10:52:16;23.70;43.30
21439;DHT22;10880;50.302;18.736;2023-05-27T10:54:47;23.70;43.70
21439;DHT22;10880;50.302;18.736;2023-05-27T10:57:14;23.70;42.30
21439;DHT22;10880;50.302;18.736;2023-05-27T10:59:55;23.70;42.10
21439;DHT22;10880;50.302;18.736;2023-05-27T11:02:23;23.70;42.70
21439;DHT22;10880;50.302;18.736;2023-05-27T11:04:52;23.70;42.70
21439;DHT22;10880;50.302;18.736;2023-05-27T11:07:20;23.70;42.40
21439;DHT22;10880;50.302;18.736;2023-05-27T11:09:58;23.70;41.90
21439;DHT22;10880;50.302;18.736;2023-05-27T11:12:28;23.60;41.60
21439;DHT22;10880;50.302;18.736;2023-05-27T11:14:56;23.60;42.10
21439;DHT22;10880;50.302;18.736;2023-05-27T11:17:23;23.60;41.60
21439;DHT22;10880;50.302;18.736;2023-05-27T11:19:57;23.60;42.20
21439;DHT22;10880;50.302;18.736;2023-05-27T11:22:25;23.60;42.00
21439;DHT22;10880;50.302;18.736;2023-05-27T11:24:59;23.60;40.70
21439;DHT22;10880;50.302;18.736;2023-05-27T11:27:38;23.60;40.90
21439;DHT22;10880;50.302;18.736;2023-05-27T11:30:13;23.60;40.90
21439;DHT22;10880;50.302;18.736;2023-05-27T11:32:41;23.60;40.70
21439;DHT22;10880;50.302;18.736;2023-05-27T11:35:15;23.60;41.30
21439;DHT22;10880;50.302;18.736;2023-05-27T11:37:54;23.60;41.20
21439;DHT22;10880;50.302;18.736;2023-05-27T11:40:25;23.60;41.10
21439;DHT22;10880;50.302;18.736;2023-05-27T11:43:16;23.70;40.90
21439;DHT22;10880;50.302;18.736;2023-05-27T11:46:03;23.70;41.20
21439;DHT22;10880;50.302;18.736;2023-05-27T11:48:33;23.70;41.30
21439;DHT22;10880;50.302;18.736;2023-05-27T11:51:00;23.80;42.10
21439;DHT22;10880;50.302;18.736;2023-05-27T11:53:28;23.80;41.40
21439;DHT22;10880;50.302;18.736;2023-05-27T11:55:57;23.80;40.80
21439;DHT22;10880;50.302;18.736;2023-05-27T11:58:27;23.80;40.70
21439;DHT22;10880;50.302;18.736;2023-05-27T12:00:56;23.80;40.80
21439;DHT22;10880;50.302;18.736;2023-05-27T12:03:25;23.80;40.70
21439;DHT22;10880;50.302;18.736;2023-05-27T12:05:52;23.90;39.70
21439;DHT22;10880;50.302;18.736;2023-05-27T12:08:20;23.90;40.10
21439;DHT22;10880;50.302;18.736;2023-05-27T12:10:50;23.90;40.20
21439;DHT22;10880;50.302;18.736;2023-05-27T12:13:21;23.90;39.10
21439;DHT22;10880;50.302;18.736;2023-05-27T12:15:49;23.90;38.90
21439;DHT22;10880;50.302;18.736;2023-05-27T12:18:17;23.90;38.70
21439;DHT22;10880;50.302;18.736;2023-05-27T12:20:49;23.90;38.60
21439;DHT22;10880;50.302;18.736;2023-05-27T12:23:16;23.90;39.00
21439;DHT22;10880;50.302;18.736;2023-05-27T12:25:44;23.90;38.90
21439;DHT22;10880;50.302;18.736;2023-05-27T12:28:12;23.90;39.20
21439;DHT22;10880;50.302;18.736;2023-05-27T12:33:08;23.90;38.80
21439;DHT22;10880;50.302;18.736;2023-05-27T12:35:38;23.90;39.00
21439;DHT22;10880;50.302;18.736;2023-05-27T12:38:04;23.90;38.40
21439;DHT22;10880;50.302;18.736;2023-05-27T12:40:34;23.90;38.00
21439;DHT22;10880;50.302;18.736;2023-05-27T12:43:02;23.90;37.80
21439;DHT22;10880;50.302;18.736;2023-05-27T12:45:33;23.90;38.60
21439;DHT22;10880;50.302;18.736;2023-05-27T12:48:02;23.90;38.80
21439;DHT22;10880;50.302;18.736;2023-05-27T12:50:30;23.90;37.10
21439;DHT22;10880;50.302;18.736;2023-05-27T12:52:59;23.90;38.10
21439;DHT22;10880;50.302;18.736;2023-05-27T12:55:27;23.90;38.20
21439;DHT22;10880;50.302;18.736;2023-05-27T12:57:55;23.90;38.00
21439;DHT22;10880;50.302;18.736;2023-05-27T13:00:25;23.90;38.20
21439;DHT22;10880;50.302;18.736;2023-05-27T13:03:00;23.90;37.50
21439;DHT22;10880;50.302;18.736;2023-05-27T13:05:36;23.90;38.10
21439;DHT22;10880;50.302;18.736;2023-05-27T13:08:06;23.90;37.50
21439;DHT22;10880;50.302;18.736;2023-05-27T13:10:38;23.90;37.30
21439;DHT22;10880;50.302;18.736;2023-05-27T13:13:07;23.90;37.80
21439;DHT22;10880;50.302;18.736;2023-05-27T13:15:34;23.90;37.90
21439;DHT22;10880;50.302;18.736;2023-05-27T13:18:02;23.90;37.90
21439;DHT22;10880;50.302;18.736;2023-05-27T13:20:34;23.90;37.00
21439;DHT22;10880;50.302;18.736;2023-05-27T13:23:02;23.90;37.60
21439;DHT22;10880;50.302;18.736;2023-05-27T13:25:29;23.90;37.50
21439;DHT22;10880;50.302;18.736;2023-05-27T13:27:58;23.50;38.00
21439;DHT22;10880;50.302;18.736;2023-05-27T13:30:26;23.90;36.90
21439;DHT22;10880;50.302;18.736;2023-05-27T13:32:53;23.90;36.90
21439;DHT22;10880;50.302;18.736;2023-05-27T13:35:27;23.90;37.70
21439;DHT22;10880;50.302;18.736;2023-05-27T13:37:55;23.90;37.50
21439;DHT22;10880;50.302;18.736;2023-05-27T13:40:23;23.90;37.00
21439;DHT22;10880;50.302;18.736;2023-05-27T13:42:52;23.90;37.30
21439;DHT22;10880;50.302;18.736;2023-05-27T13:45:20;23.90;37.30
21439;DHT22;10880;50.302;18.736;2023-05-27T13:47:47;23.90;37.70
21439;DHT22;10880;50.302;18.736;2023-05-27T13:50:17;24.00;37.10
21439;DHT22;10880;50.302;18.736;2023-05-27T13:52:44;23.90;36.80
21439;DHT22;10880;50.302;18.736;2023-05-27T13:55:12;24.00;37.50
21439;DHT22;10880;50.302;18.736;2023-05-27T13:57:40;24.00;36.90
21439;DHT22;10880;50.302;18.736;2023-05-27T14:00:11;24.00;36.70
21439;DHT22;10880;50.302;18.736;2023-05-27T14:02:39;24.00;37.30
21439;DHT22;10880;50.302;18.736;2023-05-27T14:05:11;24.00;36.50
21439;DHT22;10880;50.302;18.736;2023-05-27T14:07:40;24.00;37.20
21439;DHT22;10880;50.302;18.736;2023-05-27T14:10:11;24.00;37.10
21439;DHT22;10880;50.302;18.736;2023-05-27T14:12:39;24.00;36.90
21439;DHT22;10880;50.302;18.736;2023-05-27T14:15:09;24.00;36.90
21439;DHT22;10880;50.302;18.736;2023-05-27T14:17:40;24.00;35.90
21439;DHT22;10880;50.302;18.736;2023-05-27T14:20:09;24.00;36.60
21439;DHT22;10880;50.302;18.736;2023-05-27T14:22:37;24.00;36.50
21439;DHT22;10880;50.302;18.736;2023-05-27T14:25:08;24.00;36.60
21439;DHT22;10880;50.302;18.736;2023-05-27T14:27:35;24.00;36.40
21439;DHT22;10880;50.302;18.736;2023-05-27T14:30:06;24.00;36.80
21439;DHT22;10880;50.302;18.736;2023-05-27T14:32:44;24.00;35.70
21439;DHT22;10880;50.302;18.736;2023-05-27T14:37:41;24.00;36.20
21439;DHT22;10880;50.302;18.736;2023-05-27T14:40:08;24.00;36.10
21439;DHT22;10880;50.302;18.736;2023-05-27T14:42:36;24.00;35.80
21439;DHT22;10880;50.302;18.736;2023-05-27T14:45:05;24.00;36.10
21439;DHT22;10880;50.302;18.736;2023-05-27T14:50:10;24.00;35.40
21439;DHT22;10880;50.302;18.736;2023-05-27T14:52:39;24.00;35.70
21439;DHT22;10880;50.302;18.736;2023-05-27T14:55:07;23.90;36.30
21439;DHT22;10880;50.302;18.736;2023-05-27T14:57:34;24.00;35.70
21439;DHT22;10880;50.302;18.736;2023-05-27T15:00:03;23.90;35.80
21439;DHT22;10880;50.302;18.736;2023-05-27T15:02:37;23.90;36.30
21439;DHT22;10880;50.302;18.736;2023-05-27T15:05:05;23.90;35.60
21439;DHT22;10880;50.302;18.736;2023-05-27T15:07:32;23.90;35.60
21439;DHT22;10880;50.302;18.736;2023-05-27T15:10:00;23.90;36.10
21439;DHT22;10880;50.302;18.736;2023-05-27T15:12:37;23.90;35.80
21439;DHT22;10880;50.302;18.736;2023-05-27T15:15:06;23.90;36.30
21439;DHT22;10880;50.302;18.736;2023-05-27T15:17:34;23.90;35.40
21439;DHT22;10880;50.302;18.736;2023-05-27T15:20:04;23.90;36.10
21439;DHT22;10880;50.302;18.736;2023-05-27T15:22:32;23.90;35.30
21439;DHT22;10880;50.302;18.736;2023-05-27T15:25:01;23.90;35.80
21439;DHT22;10880;50.302;18.736;2023-05-27T15:27:29;23.90;36.00
21439;DHT22;10880;50.302;18.736;2023-05-27T15:29:59;23.90;35.80
21439;DHT22;10880;50.302;18.736;2023-05-27T15:32:26;23.90;35.60
21439;DHT22;10880;50.302;18.736;2023-05-27T15:34:53;23.80;36.20
21439;DHT22;10880;50.302;18.736;2023-05-27T15:37:20;23.80;35.80
21439;DHT22;10880;50.302;18.736;2023-05-27T15:39:52;23.80;36.00
21439;DHT22;10880;50.302;18.736;2023-05-27T15:42:20;23.80;36.30
21439;DHT22;10880;50.302;18.736;2023-05-27T15:44:47;23.80;36.10
21439;DHT22;10880;50.302;18.736;2023-05-27T15:49:41;23.80;35.90
21439;DHT22;10880;50.302;18.736;2023-05-27T15:52:08;23.80;36.30
21439;DHT22;10880;50.302;18.736;2023-05-27T15:54:38;23.80;35.80
21439;DHT22;10880;50.302;18.736;2023-05-27T15:57:09;23.80;36.40
21439;DHT22;10880;50.302;18.736;2023-05-27T15:59:37;23.70;36.30
21439;DHT22;10880;50.302;18.736;2023-05-27T16:02:09;23.70;35.90
21439;DHT22;10880;50.302;18.736;2023-05-27T16:04:51;23.70;35.80
21439;DHT22;10880;50.302;18.736;2023-05-27T16:07:21;23.70;36.20
21439;DHT22;10880;50.302;18.736;2023-05-27T16:09:48;23.70;35.80
21439;DHT22;10880;50.302;18.736;2023-05-27T16:12:15;23.70;35.70